createdAt,value
2023-04-14T00:00:01.906Z,10.70
2023-04-14T00:03:00.994Z,10.10
2023-04-14T00:05:32.973Z,11.60
2023-04-14T00:08:01.409Z,11.00
2023-04-14T00:10:29.002Z,10.70
2023-04-14T00:12:56.939Z,12.20
2023-04-14T00:15:24.497Z,10.70
2023-04-14T00:17:52.568Z,11.80
2023-04-14T00:20:20.216Z,11.10
2023-04-14T00:22:47.671Z,12.10
2023-04-14T00:25:15.116Z,11.10
2023-04-14T00:27:42.741Z,12.40
2023-04-14T00:30:10.748Z,10.80
2023-04-14T00:32:39.435Z,11.10
2023-04-14T00:35:07.479Z,10.60
2023-04-14T00:37:34.892Z,11.70
2023-04-14T00:40:02.331Z,13.10
2023-04-14T00:42:29.856Z,10.80
2023-04-14T00:44:57.293Z,11.70
2023-04-14T00:47:26.322Z,10.60
2023-04-14T00:49:53.771Z,10.40
2023-04-14T00:52:23.562Z,9.50
2023-04-14T00:54:51.076Z,9.50
2023-04-14T00:57:18.685Z,10.50
2023-04-14T00:59:46.507Z,12.50
2023-04-14T01:02:14.190Z,11.60
2023-04-14T01:04:52.981Z,12.60
2023-04-14T01:07:23.956Z,13.20
2023-04-14T01:09:53.663Z,11.60
2023-04-14T01:12:35.645Z,9.20
2023-04-14T01:15:16.973Z,7.70
2023-04-14T01:17:57.235Z,9.70
2023-04-14T01:20:39.268Z,11.70
2023-04-14T01:23:22.074Z,16.00
2023-04-14T01:26:29.807Z,14.50
2023-04-14T01:29:26.612Z,15.80
2023-04-14T01:32:04.974Z,20.10
2023-04-14T01:35:00.151Z,18.70
2023-04-14T01:37:33.408Z,19.30
2023-04-14T01:40:07.593Z,19.70
2023-04-14T01:45:27.303Z,19.80
2023-04-14T01:47:55.618Z,19.40
2023-04-14T01:50:26.854Z,16.60
2023-04-14T01:52:55.340Z,14.00
2023-04-14T01:55:27.219Z,15.40
2023-04-14T01:57:57.391Z,15.90
2023-04-14T02:00:26.091Z,14.00
2023-04-14T02:02:55.297Z,13.70
2023-04-14T02:05:25.813Z,12.60
2023-04-14T02:07:55.329Z,12.80
2023-04-14T02:10:24.382Z,13.70
2023-04-14T02:12:57.070Z,14.70
2023-04-14T02:15:25.631Z,13.30
2023-04-14T02:17:55.530Z,12.70
2023-04-14T02:20:23.070Z,11.70
2023-04-14T02:22:50.733Z,12.40
2023-04-14T02:25:18.242Z,15.60
2023-04-14T02:27:55.886Z,13.70
2023-04-14T02:30:37.430Z,13.50
2023-04-14T02:33:13.414Z,14.60
2023-04-14T02:36:02.996Z,16.30
2023-04-14T02:38:38.737Z,15.40
2023-04-14T02:41:19.873Z,13.80
2023-04-14T02:43:58.644Z,14.50
2023-04-14T02:46:29.356Z,14.70
2023-04-14T02:49:01.353Z,15.60
2023-04-14T02:51:31.367Z,16.20
2023-04-14T02:53:58.997Z,14.30
2023-04-14T02:56:37.431Z,14.10
2023-04-14T02:59:05.730Z,13.20
2023-04-14T03:01:34.728Z,12.70
2023-04-14T03:04:02.435Z,13.80
2023-04-14T03:06:32.730Z,12.60
2023-04-14T03:09:01.883Z,12.20
2023-04-14T03:11:32.635Z,13.30
2023-04-14T03:14:00.772Z,13.60
2023-04-14T03:16:29.994Z,14.40
2023-04-14T03:18:59.585Z,11.70
2023-04-14T03:21:29.633Z,13.60
2023-04-14T03:23:58.864Z,13.20
2023-04-14T03:26:31.862Z,13.80
2023-04-14T03:29:06.097Z,13.90
2023-04-14T03:31:36.756Z,13.90
2023-04-14T03:34:06.729Z,14.50
2023-04-14T03:36:37.362Z,13.30
2023-04-14T03:39:06.085Z,12.10
2023-04-14T03:41:38.288Z,12.10
2023-04-14T03:44:10.273Z,12.80
2023-04-14T03:46:38.062Z,13.80
2023-04-14T03:49:10.575Z,13.80
2023-04-14T03:51:41.644Z,12.70
2023-04-14T03:54:11.285Z,15.30
2023-04-14T03:56:40.826Z,13.30
2023-04-14T03:59:12.160Z,14.10
2023-04-14T04:01:41.320Z,14.20
2023-04-14T04:04:10.177Z,14.40
2023-04-14T04:06:40.368Z,13.90
2023-04-14T04:09:12.154Z,14.50
2023-04-14T04:11:41.599Z,15.20
2023-04-14T04:14:10.429Z,18.00
2023-04-14T04:16:41.333Z,21.30
2023-04-14T04:19:10.800Z,21.20
2023-04-14T04:21:44.331Z,18.80
2023-04-14T04:24:14.968Z,18.80
2023-04-14T04:26:42.875Z,17.40
2023-04-14T04:29:12.070Z,17.80
2023-04-14T04:31:40.341Z,17.40
2023-04-14T04:34:08.145Z,18.10
2023-04-14T04:36:38.274Z,20.70
2023-04-14T04:39:05.962Z,22.10
2023-04-14T04:41:36.866Z,16.90
2023-04-14T04:44:04.665Z,17.60
2023-04-14T04:46:43.986Z,18.80
2023-04-14T04:49:11.618Z,20.50
2023-04-14T04:51:39.207Z,20.70
2023-04-14T04:54:06.898Z,18.60
2023-04-14T04:56:34.434Z,19.00
2023-04-14T04:59:03.556Z,20.10
2023-04-14T05:01:31.332Z,21.20
2023-04-14T05:03:59.011Z,21.80
2023-04-14T05:06:27.680Z,19.50
2023-04-14T05:08:55.702Z,18.60
2023-04-14T05:11:23.549Z,18.30
2023-04-14T05:13:50.937Z,22.10
2023-04-14T05:16:19.040Z,19.90
2023-04-14T05:18:46.570Z,20.30
2023-04-14T05:21:15.013Z,19.50
2023-04-14T05:23:44.878Z,21.00
2023-04-14T05:28:43.832Z,16.10
2023-04-14T05:31:11.241Z,16.00
2023-04-14T05:33:39.490Z,16.10
2023-04-14T05:36:07.585Z,15.20
2023-04-14T05:38:41.066Z,16.00
2023-04-14T05:41:08.710Z,16.80
2023-04-14T05:43:36.637Z,16.80
2023-04-14T05:46:04.213Z,17.10
2023-04-14T05:48:32.709Z,16.20
2023-04-14T05:51:00.263Z,14.10
2023-04-14T05:53:27.735Z,16.20
2023-04-14T05:55:56.601Z,15.80
2023-04-14T05:58:26.010Z,14.70
2023-04-14T06:00:53.725Z,14.20
2023-04-14T06:03:21.316Z,15.90
2023-04-14T06:05:50.159Z,13.90
2023-04-14T06:08:18.945Z,15.60
2023-04-14T06:10:46.590Z,15.10
2023-04-14T06:13:15.709Z,14.10
2023-04-14T06:15:43.192Z,14.30
2023-04-14T06:18:10.725Z,14.40
2023-04-14T06:20:38.703Z,13.40
2023-04-14T06:23:06.232Z,13.30
2023-04-14T06:25:34.532Z,12.30
2023-04-14T06:28:04.545Z,12.70
2023-04-14T06:30:32.032Z,13.80
2023-04-14T06:33:03.744Z,12.50
2023-04-14T06:35:33.685Z,12.70
2023-04-14T06:38:02.396Z,10.30
2023-04-14T06:40:30.110Z,11.00
2023-04-14T06:42:57.628Z,10.10
2023-04-14T06:45:25.188Z,9.40
2023-04-14T06:47:52.665Z,10.40
2023-04-14T06:50:20.375Z,10.20
2023-04-14T06:52:47.973Z,10.40
2023-04-14T06:55:15.779Z,8.40
2023-04-14T06:57:43.184Z,11.40
2023-04-14T07:00:11.805Z,9.30
2023-04-14T07:02:39.365Z,7.90
2023-04-14T07:05:07.668Z,9.60
2023-04-14T07:07:36.864Z,9.10
2023-04-14T07:10:05.101Z,7.90
2023-04-14T07:12:33.247Z,7.60
2023-04-14T07:15:00.571Z,8.50
2023-04-14T07:17:27.998Z,8.20
2023-04-14T07:19:56.285Z,7.70
2023-04-14T07:22:23.995Z,7.50
2023-04-14T07:24:53.242Z,7.90
2023-04-14T07:27:20.618Z,7.10
2023-04-14T07:29:48.765Z,6.70
2023-04-14T07:32:16.130Z,6.40
2023-04-14T07:34:43.688Z,6.80
2023-04-14T07:37:11.683Z,6.90
2023-04-14T07:39:39.292Z,6.80
2023-04-14T07:42:06.748Z,6.60
2023-04-14T07:44:34.383Z,6.10
2023-04-14T07:47:02.036Z,5.90
2023-04-14T07:49:29.560Z,6.30
2023-04-14T07:51:57.154Z,6.20
2023-04-14T07:54:24.950Z,6.10
2023-04-14T07:56:52.497Z,6.70
2023-04-14T07:59:20.439Z,6.00
2023-04-14T08:01:48.082Z,7.00
2023-04-14T08:04:16.002Z,5.30
2023-04-14T08:06:43.950Z,6.40
2023-04-14T08:09:11.787Z,5.70
2023-04-14T08:11:39.400Z,5.00
2023-04-14T08:14:06.900Z,6.30
2023-04-14T08:16:36.040Z,6.00
2023-04-14T08:19:04.585Z,6.10
2023-04-14T08:21:32.668Z,5.50
2023-04-14T08:24:00.544Z,5.50
2023-04-14T08:26:28.018Z,5.00
2023-04-14T08:28:55.618Z,5.00
2023-04-14T08:31:24.495Z,5.40
2023-04-14T08:33:52.376Z,5.30
2023-04-14T08:36:19.944Z,5.90
2023-04-14T08:38:47.609Z,5.60
2023-04-14T08:41:19.357Z,6.10
2023-04-14T08:43:47.068Z,6.10
2023-04-14T08:46:15.763Z,5.40
2023-04-14T08:48:47.381Z,6.10
2023-04-14T08:51:39.036Z,7.00
2023-04-14T08:54:10.148Z,6.80
2023-04-14T08:56:40.870Z,7.40
2023-04-14T08:59:10.830Z,5.80
2023-04-14T09:01:39.456Z,5.50
2023-04-14T09:04:08.184Z,7.10
2023-04-14T09:06:36.765Z,6.30
2023-04-14T09:09:10.168Z,5.10
2023-04-14T09:11:38.215Z,5.50
2023-04-14T09:14:06.289Z,5.90
2023-04-14T09:16:33.949Z,5.30
2023-04-14T09:19:06.966Z,3.90
2023-04-14T09:21:53.644Z,4.40
2023-04-14T09:24:24.558Z,4.10
2023-04-14T09:26:52.382Z,7.10
2023-04-14T09:29:19.925Z,5.30
2023-04-14T09:31:47.557Z,5.20
2023-04-14T09:34:20.005Z,4.80
2023-04-14T09:37:03.186Z,5.00
2023-04-14T09:39:35.481Z,4.10
2023-04-14T09:42:04.717Z,3.80
2023-04-14T09:44:32.124Z,4.60
2023-04-14T09:47:06.885Z,4.20
2023-04-14T09:49:35.128Z,4.10
2023-04-14T09:52:08.821Z,4.60
2023-04-14T09:54:39.522Z,4.30
2023-04-14T09:57:07.683Z,3.50
2023-04-14T09:59:37.981Z,4.70
2023-04-14T10:02:09.693Z,4.60
2023-04-14T10:04:37.853Z,3.60
2023-04-14T10:07:08.504Z,3.30
2023-04-14T10:09:40.140Z,4.00
2023-04-14T10:12:17.587Z,3.90
2023-04-14T10:14:45.005Z,3.70
2023-04-14T10:17:13.185Z,3.70
2023-04-14T10:19:40.592Z,3.80
2023-04-14T10:22:08.723Z,3.60
2023-04-14T10:24:36.985Z,3.30
2023-04-14T10:27:05.646Z,3.30
2023-04-14T10:29:33.598Z,3.50
2023-04-14T10:32:05.719Z,3.60
2023-04-14T10:34:35.071Z,2.60
2023-04-14T10:37:16.129Z,3.10
2023-04-14T10:39:53.498Z,3.40
2023-04-14T10:42:21.461Z,2.90
2023-04-14T10:45:12.245Z,3.00
2023-04-14T10:47:40.397Z,3.20
2023-04-14T10:50:18.729Z,3.80
2023-04-14T10:52:55.435Z,3.50
2023-04-14T10:55:30.084Z,3.50
2023-04-14T10:58:06.092Z,2.90
2023-04-14T11:00:38.854Z,3.80
2023-04-14T11:03:12.468Z,3.90
2023-04-14T11:05:47.617Z,3.40
2023-04-14T11:08:26.719Z,3.50
2023-04-14T11:11:03.731Z,3.80
2023-04-14T11:13:33.792Z,3.90
2023-04-14T11:16:06.376Z,3.80
2023-04-14T11:18:43.895Z,3.30
2023-04-14T11:21:15.735Z,2.90
2023-04-14T11:23:44.078Z,2.50
2023-04-14T11:26:15.612Z,3.20
2023-04-14T11:28:45.800Z,3.30
2023-04-14T11:31:20.958Z,3.40
2023-04-14T11:33:50.361Z,2.90
2023-04-14T11:36:18.039Z,2.90
2023-04-14T11:38:46.718Z,2.50
2023-04-14T11:41:15.866Z,2.30
2023-04-14T11:43:46.172Z,1.90
2023-04-14T11:46:15.890Z,2.70
2023-04-14T11:48:43.776Z,2.30
2023-04-14T11:51:11.431Z,1.50
2023-04-14T11:53:42.919Z,1.70
2023-04-14T11:56:12.301Z,1.80
2023-04-14T11:58:40.328Z,2.40
2023-04-14T12:01:08.471Z,1.60
2023-04-14T12:03:36.690Z,1.80
2023-04-14T12:06:05.240Z,2.20
2023-04-14T12:08:33.548Z,1.90
2023-04-14T12:11:22.255Z,1.80
2023-04-14T12:13:50.484Z,2.30
2023-04-14T12:16:18.670Z,1.60
2023-04-14T12:18:46.436Z,1.70
2023-04-14T12:21:19.094Z,2.00
2023-04-14T12:23:50.638Z,2.00
2023-04-14T12:26:19.518Z,1.90
2023-04-14T12:28:55.942Z,2.50
2023-04-14T12:31:30.055Z,2.80
2023-04-14T12:34:03.061Z,2.40
2023-04-14T12:36:47.998Z,3.00
2023-04-14T12:39:17.357Z,2.30
2023-04-14T12:41:45.186Z,2.20
2023-04-14T12:44:20.565Z,2.20
2023-04-14T12:46:52.319Z,2.00
2023-04-14T12:49:49.632Z,2.80
2023-04-14T12:52:36.526Z,3.00
2023-04-14T12:55:18.233Z,1.70
2023-04-14T12:57:45.856Z,2.60
2023-04-14T13:00:14.254Z,2.50
2023-04-14T13:02:43.578Z,3.10
2023-04-14T13:05:12.264Z,3.70
2023-04-14T13:07:40.414Z,1.90
2023-04-14T13:10:09.485Z,2.00
2023-04-14T13:12:37.459Z,2.70
2023-04-14T13:15:05.997Z,2.70
2023-04-14T13:17:33.799Z,2.70
2023-04-14T13:20:01.678Z,1.90
2023-04-14T13:22:29.437Z,2.60
2023-04-14T13:24:59.486Z,2.70
2023-04-14T13:27:26.881Z,2.00
2023-04-14T13:29:54.290Z,2.50
2023-04-14T13:32:22.302Z,2.50
2023-04-14T13:34:52.526Z,1.80
2023-04-14T13:37:21.452Z,2.80
2023-04-14T13:39:49.103Z,3.20
2023-04-14T13:42:16.707Z,2.20
2023-04-14T13:44:44.295Z,2.10
2023-04-14T13:47:12.004Z,2.50
2023-04-14T13:49:39.681Z,2.60
2023-04-14T13:52:08.166Z,2.10
2023-04-14T13:54:35.865Z,1.90
2023-04-14T13:57:04.625Z,2.60
2023-04-14T13:59:33.710Z,1.80
2023-04-14T14:02:02.367Z,2.30
2023-04-14T14:04:31.109Z,2.00
2023-04-14T14:07:00.663Z,2.30
2023-04-14T14:09:28.961Z,2.00
2023-04-14T14:11:57.139Z,2.30
2023-04-14T14:14:24.897Z,2.90
2023-04-14T14:16:53.212Z,2.80
2023-04-14T14:19:21.414Z,2.50
2023-04-14T14:21:50.076Z,2.70
2023-04-14T14:24:18.136Z,2.50
2023-04-14T14:26:46.737Z,3.00
2023-04-14T14:29:14.835Z,2.30
2023-04-14T14:31:42.952Z,2.50
2023-04-14T14:34:11.389Z,2.80
2023-04-14T14:36:39.285Z,3.10
2023-04-14T14:39:08.989Z,2.00
2023-04-14T14:41:37.611Z,2.50
2023-04-14T14:44:05.608Z,2.80
2023-04-14T14:46:34.686Z,2.90
2023-04-14T14:49:02.738Z,2.70
2023-04-14T14:51:31.486Z,2.50
2023-04-14T14:54:09.210Z,2.70
2023-04-14T14:56:38.079Z,2.40
2023-04-14T14:59:08.092Z,3.20
2023-04-14T15:01:36.559Z,2.70
2023-04-14T15:04:05.942Z,2.90
2023-04-14T15:06:35.415Z,3.30
2023-04-14T15:09:05.343Z,2.10
2023-04-14T15:11:33.411Z,3.00
2023-04-14T15:14:02.030Z,3.00
2023-04-14T15:16:30.659Z,3.10
2023-04-14T15:18:58.383Z,3.30
2023-04-14T15:21:26.110Z,3.10
2023-04-14T15:23:54.559Z,2.70
2023-04-14T15:26:22.698Z,3.30
2023-04-14T15:28:50.643Z,2.70
2023-04-14T15:31:18.838Z,3.30
2023-04-14T15:33:46.585Z,2.60
2023-04-14T15:36:14.481Z,2.90
2023-04-14T15:38:42.635Z,3.40
2023-04-14T15:41:10.912Z,3.10
2023-04-14T15:43:39.094Z,3.70
2023-04-14T15:46:07.277Z,3.10
2023-04-14T15:48:35.289Z,2.80
2023-04-14T15:51:04.629Z,4.10
2023-04-14T15:53:32.727Z,3.60
2023-04-14T15:56:00.552Z,3.60
2023-04-14T15:58:28.457Z,2.90
2023-04-14T16:00:56.344Z,3.20
2023-04-14T16:03:24.531Z,3.30
2023-04-14T16:06:06.260Z,2.80
2023-04-14T16:08:34.041Z,3.10
2023-04-14T16:11:02.021Z,4.00
2023-04-14T16:13:30.036Z,3.40
2023-04-14T16:15:58.229Z,3.30
2023-04-14T16:18:26.166Z,2.90
2023-04-14T16:20:54.061Z,3.00
2023-04-14T16:23:21.872Z,3.10
2023-04-14T16:25:49.738Z,3.00
2023-04-14T16:28:18.181Z,2.80
2023-04-14T16:30:45.908Z,2.80
2023-04-14T16:33:13.760Z,2.20
2023-04-14T16:35:41.718Z,3.20
2023-04-14T16:38:09.608Z,2.60
2023-04-14T16:40:38.061Z,2.90
2023-04-14T16:43:06.002Z,3.10
2023-04-14T16:45:34.336Z,3.10
2023-04-14T16:48:01.965Z,3.90
2023-04-14T16:50:31.338Z,3.90
2023-04-14T16:52:59.560Z,4.20
2023-04-14T16:55:27.300Z,3.90
2023-04-14T16:57:55.173Z,3.70
2023-04-14T17:00:23.256Z,3.60
2023-04-14T17:02:50.926Z,3.40
2023-04-14T17:05:20.263Z,4.00
2023-04-14T17:07:48.591Z,3.50
2023-04-14T17:10:16.338Z,3.70
2023-04-14T17:12:44.117Z,3.90
2023-04-14T17:15:12.560Z,4.00
2023-04-14T17:17:40.036Z,3.60
2023-04-14T17:20:09.960Z,3.50
2023-04-14T17:22:38.161Z,3.90
2023-04-14T17:25:08.168Z,3.80
2023-04-14T17:27:35.975Z,4.20
2023-04-14T17:30:04.446Z,4.40
2023-04-14T17:32:32.354Z,3.30
2023-04-14T17:35:00.212Z,3.90
2023-04-14T17:37:28.886Z,4.00
2023-04-14T17:39:57.792Z,3.50
2023-04-14T17:42:25.835Z,3.30
2023-04-14T17:44:53.734Z,3.80
2023-04-14T17:47:22.431Z,3.20
2023-04-14T17:49:50.294Z,3.00
2023-04-14T17:52:20.955Z,2.70
2023-04-14T17:54:49.507Z,3.10
2023-04-14T17:57:17.436Z,3.40
2023-04-14T17:59:45.638Z,3.20
2023-04-14T18:02:15.059Z,3.10
2023-04-14T18:04:43.277Z,3.50
2023-04-14T18:07:10.965Z,3.10
2023-04-14T18:09:38.439Z,3.20
2023-04-14T18:12:06.044Z,3.30
2023-04-14T18:14:33.864Z,2.30
2023-04-14T18:17:01.732Z,3.10
2023-04-14T18:19:29.247Z,3.00
2023-04-14T18:21:57.069Z,2.80
2023-04-14T18:26:56.486Z,3.30
2023-04-14T18:29:24.029Z,3.20
2023-04-14T18:31:51.744Z,4.00
2023-04-14T18:34:19.379Z,3.40
2023-04-14T18:36:47.107Z,2.90
2023-04-14T18:39:16.015Z,4.20
2023-04-14T18:41:43.820Z,2.70
2023-04-14T18:44:11.566Z,2.50
2023-04-14T18:46:39.898Z,3.10
2023-04-14T18:49:07.747Z,3.30
2023-04-14T18:51:35.780Z,2.60
2023-04-14T18:54:04.386Z,2.90
2023-04-14T18:56:32.210Z,2.60
2023-04-14T18:59:00.253Z,2.50
2023-04-14T19:01:28.301Z,2.80
2023-04-14T19:03:57.215Z,2.80
2023-04-14T19:06:25.742Z,2.70
2023-04-14T19:08:53.273Z,2.60
2023-04-14T19:11:21.181Z,2.60
2023-04-14T19:13:49.048Z,2.90
2023-04-14T19:16:16.642Z,2.80
2023-04-14T19:18:44.612Z,2.70
2023-04-14T19:21:12.971Z,2.70
2023-04-14T19:23:41.849Z,3.00
2023-04-14T19:26:11.135Z,2.80
2023-04-14T19:28:39.971Z,3.30
2023-04-14T19:31:07.850Z,2.80
2023-04-14T19:33:35.597Z,3.30
2023-04-14T19:36:10.679Z,3.00
2023-04-14T19:38:39.083Z,2.70
2023-04-14T19:41:08.202Z,2.50
2023-04-14T19:43:36.116Z,2.50
2023-04-14T19:46:04.734Z,2.80
2023-04-14T19:48:32.886Z,2.70
2023-04-14T19:51:04.093Z,3.20
2023-04-14T19:53:31.811Z,2.70
2023-04-14T19:55:59.559Z,3.80
2023-04-14T19:58:30.044Z,3.60
2023-04-14T20:00:58.388Z,3.50
2023-04-14T20:03:26.634Z,3.90
2023-04-14T20:05:56.491Z,3.10
2023-04-14T20:08:25.743Z,3.30
2023-04-14T20:10:53.836Z,3.40
2023-04-14T20:13:23.721Z,3.50
2023-04-14T20:15:53.487Z,3.20
2023-04-14T20:18:22.027Z,3.30
2023-04-14T20:20:49.808Z,3.60
2023-04-14T20:23:17.770Z,3.40
2023-04-14T20:25:48.019Z,4.20
2023-04-14T20:28:19.666Z,3.60
2023-04-14T20:30:49.014Z,4.10
2023-04-14T20:33:18.006Z,4.30
2023-04-14T20:35:45.803Z,4.50
2023-04-14T20:38:15.532Z,4.10
2023-04-14T20:40:44.702Z,4.10
2023-04-14T20:43:12.442Z,4.50
2023-04-14T20:45:40.168Z,4.70
2023-04-14T20:48:07.817Z,4.20
2023-04-14T20:50:35.619Z,4.10
2023-04-14T20:53:03.342Z,4.40
2023-04-14T20:55:30.990Z,4.10
2023-04-14T20:57:58.892Z,4.80
2023-04-14T21:00:26.976Z,4.50
2023-04-14T21:02:54.728Z,4.60
2023-04-14T21:05:22.324Z,4.60
2023-04-14T21:07:49.932Z,4.40
2023-04-14T21:10:17.643Z,5.10
2023-04-14T21:15:26.330Z,5.20
2023-04-14T21:15:53.484Z,4.80
2023-04-14T21:18:21.244Z,4.90
2023-04-14T21:20:48.912Z,5.50
2023-04-14T21:23:17.084Z,4.80
2023-04-14T21:25:45.255Z,5.10
2023-04-14T21:28:13.244Z,5.60
2023-04-14T21:30:41.078Z,4.30
2023-04-14T21:33:08.730Z,5.40
2023-04-14T21:35:37.243Z,4.40
2023-04-14T21:38:05.136Z,4.60
2023-04-14T21:40:33.323Z,4.30
2023-04-14T21:43:00.939Z,5.00
2023-04-14T21:45:29.035Z,4.50
2023-04-14T21:47:57.315Z,4.50
2023-04-14T21:50:25.161Z,4.40
2023-04-14T21:52:52.733Z,4.00
2023-04-14T21:55:20.274Z,4.90
2023-04-14T21:57:49.825Z,4.50
2023-04-14T22:00:18.436Z,4.80
2023-04-14T22:02:46.845Z,4.70
2023-04-14T22:05:15.146Z,4.30
2023-04-14T22:07:42.878Z,4.40
2023-04-14T22:10:11.518Z,4.40
2023-04-14T22:12:39.386Z,4.10
2023-04-14T22:15:08.274Z,4.40
2023-04-14T22:17:38.200Z,3.70
2023-04-14T22:20:07.241Z,3.70
2023-04-14T22:22:35.415Z,5.40
2023-04-14T22:25:03.833Z,4.30
2023-04-14T22:27:33.515Z,4.00
2023-04-14T22:30:02.228Z,3.00
2023-04-14T22:32:30.342Z,4.00
2023-04-14T22:34:58.066Z,4.00
2023-04-14T22:37:26.217Z,3.70
2023-04-14T22:39:53.958Z,3.80
2023-04-14T22:42:21.461Z,2.90
2023-04-14T22:44:50.937Z,3.30
2023-04-14T22:47:18.857Z,2.90
2023-04-14T22:49:46.577Z,3.10
2023-04-14T22:52:14.247Z,3.90
2023-04-14T22:54:41.900Z,4.00
2023-04-14T22:57:10.829Z,4.30
2023-04-14T22:59:38.429Z,3.90
2023-04-14T23:02:06.803Z,3.70
2023-04-14T23:04:34.552Z,3.80
2023-04-14T23:07:02.303Z,4.30
2023-04-14T23:09:30.846Z,4.20
2023-04-14T23:11:58.585Z,3.40
2023-04-14T23:14:26.507Z,4.20
2023-04-14T23:16:54.094Z,3.80
2023-04-14T23:19:21.925Z,3.20
2023-04-14T23:21:50.453Z,3.50
2023-04-14T23:24:18.443Z,4.10
2023-04-14T23:26:46.031Z,3.40
2023-04-14T23:29:13.497Z,3.30
2023-04-14T23:31:41.359Z,3.80
2023-04-14T23:34:10.428Z,3.90
2023-04-14T23:36:38.061Z,3.90
2023-04-14T23:39:05.886Z,4.00
2023-04-14T23:41:33.425Z,4.00
2023-04-14T23:44:01.028Z,5.10
2023-04-14T23:46:29.392Z,5.00
2023-04-14T23:48:58.324Z,4.70
2023-04-14T23:51:31.450Z,4.30
2023-04-14T23:54:01.336Z,5.60
2023-04-14T23:56:29.714Z,4.10
2023-04-14T23:59:01.322Z,5.50
